Terminal Aerodrome Forecast
Issued by NWS

Home | Current Version | Previous Version | Text Only | Print | Product List | Glossary On
Versions: 1 2 3 4 5 6 7 8 9 10 11 12 13 14 15 16 17 18 19 20 21 22 23 24 25 26 27 28 29 30 31 32
000
FTUS43 KFGF 220324 AAB
TAFDVL
TAF AMD
KDVL 220324Z 2203/2224 15008KT 4SM -SN OVC010 WS003/14015KT
      TEMPO 2203/2205 1SM -SN OVC010
     FM220700 32005KT P6SM OVC025
     FM220900 32006KT P6SM OVC016
     FM222000 31011KT P6SM SCT035=

USA.gov is the U.S. government's official web portal to all federal, state and local government web resources and services.